Terminal Aerodrome Forecast
Issued by NWS Twin Cities, MN

Home | Current Version | Previous Version | Text Only | Print | Product List | Glossary Off
Versions: 1 2 3 4 5 6 7 8 9 10 11 12 13 14 15 16 17 18 19 20 21 22 23 24 25 26

000
FTUS43 KMPX 290320 AAA
TAFMSP
TAF AMD
KMSP 290320Z 2903/3006 VRB04KT 2SM BR OVC006
      TEMPO 2903/2906 1SM -FZDZSN BR OVC004
     FM290600 32008KT 3SM -SHSN BR OVC008
     FM290900 32014G23KT P6SM OVC012
     FM291400 32019G26KT P6SM OVC020
     FM292100 32014G20KT P6SM SCT025=

USA.gov is the U.S. government's official web portal to all federal, state and local government web resources and services.